Time;durP1;ratioP1;P1;durP2;ratioP2;P2;SDS_P1;SDS_P2;PMS_P1;PMS_P2;Temp;Humidity;BMP_temperature;BMP_pressure;BME280_temperature;BME280_humidity;BME280_pressure;Samples;Min_cycle;Max_cycle;Signal;HPM_P1;HPM_P2
2023/06/15 00:00:24;;;;;;;3.15;1.80;;;16.70;92.30;;;;;;5120809;27;20649;-66
2023/06/15 00:02:50;;;;;;;2.65;2.00;;;16.60;92.40;;;;;;5111424;27;20047;-63
2023/06/15 00:05:16;;;;;;;5.10;1.90;;;16.60;92.50;;;;;;5097738;28;20057;-65
2023/06/15 00:07:42;;;;;;;5.57;2.13;;;16.50;92.80;;;;;;5117423;27;20172;-66
2023/06/15 00:10:09;;;;;;;5.50;2.30;;;16.50;93.00;;;;;;5120497;27;20841;-63
2023/06/15 00:12:35;;;;;;;5.30;2.00;;;16.40;93.10;;;;;;5111296;27;20172;-64
2023/06/15 00:15:01;;;;;;;2.58;2.13;;;16.40;93.20;;;;;;5120581;27;20113;-66
2023/06/15 00:17:29;;;;;;;7.30;2.42;;;16.30;93.40;;;;;;5119818;27;20139;-65
2023/06/15 00:19:57;;;;;;;5.22;2.65;;;16.30;93.60;;;;;;5120845;27;20049;-66
2023/06/15 00:22:26;;;;;;;3.10;2.28;;;16.20;93.70;;;;;;5117487;27;20177;-65
2023/06/15 00:24:55;;;;;;;4.72;2.30;;;16.10;94.00;;;;;;5121489;27;20050;-65
2023/06/15 00:27:21;;;;;;;4.35;2.10;;;16.10;94.30;;;;;;5116799;27;20157;-64
2023/06/15 00:29:47;;;;;;;5.55;2.60;;;16.10;94.40;;;;;;5111377;27;20123;-64
2023/06/15 00:32:12;;;;;;;3.13;2.20;;;16.00;94.50;;;;;;5111783;27;20032;-65
2023/06/15 00:34:38;;;;;;;3.45;2.40;;;16.00;94.70;;;;;;5117987;27;20027;-63
2023/06/15 00:37:04;;;;;;;4.57;2.58;;;16.00;95.00;;;;;;5119784;27;20509;-64
2023/06/15 00:39:30;;;;;;;3.90;2.45;;;15.90;95.20;;;;;;5120049;27;20502;-64
2023/06/15 00:41:55;;;;;;;3.50;2.45;;;15.80;95.40;;;;;;5120523;27;20043;-66
2023/06/15 00:44:21;;;;;;;6.28;2.78;;;15.80;95.60;;;;;;5119438;27;20039;-64
2023/06/15 00:46:47;;;;;;;4.63;2.80;;;15.70;95.90;;;;;;5110150;28;20052;-64
2023/06/15 00:49:13;;;;;;;5.03;2.70;;;15.70;96.20;;;;;;5101596;28;20414;-66
2023/06/15 00:51:39;;;;;;;4.00;2.95;;;15.70;96.20;;;;;;5102799;28;20043;-64
2023/06/15 00:54:06;;;;;;;7.57;2.67;;;15.60;96.40;;;;;;5105478;28;20541;-64
2023/06/15 00:56:32;;;;;;;3.42;2.63;;;15.60;96.60;;;;;;5109231;28;20405;-65
2023/06/15 00:58:58;;;;;;;6.53;2.95;;;15.60;96.80;;;;;;5111540;28;20035;-65
2023/06/15 01:01:24;;;;;;;5.47;3.53;;;15.50;97.00;;;;;;5099855;28;20030;-63
2023/06/15 01:03:51;;;;;;;6.00;2.83;;;15.50;97.30;;;;;;5105691;28;20032;-64
2023/06/15 01:06:19;;;;;;;7.38;2.60;;;15.40;97.30;;;;;;5109547;28;20114;-65
2023/06/15 01:08:47;;;;;;;5.80;2.78;;;15.40;97.50;;;;;;5103363;28;20036;-62
2023/06/15 01:11:17;;;;;;;4.32;3.03;;;15.40;97.70;;;;;;5103934;28;20086;-65
2023/06/15 01:13:44;;;;;;;4.45;2.78;;;15.40;98.00;;;;;;5103683;28;20038;-63
2023/06/15 01:16:18;;;;;;;5.88;3.10;;;15.30;98.10;;;;;;5103907;28;20055;-62
2023/06/15 01:18:47;;;;;;;6.35;3.10;;;15.30;98.20;;;;;;5102499;28;20195;-64
2023/06/15 01:21:14;;;;;;;3.67;2.80;;;15.30;98.40;;;;;;5109706;28;20044;-63
2023/06/15 01:23:59;;;;;;;7.95;2.97;;;15.20;98.50;;;;;;5101440;28;20456;-65
2023/06/15 01:26:28;;;;;;;7.15;3.00;;;15.10;98.70;;;;;;5101459;28;20048;-64
2023/06/15 01:28:56;;;;;;;11.25;2.92;;;15.10;98.90;;;;;;5105547;28;20386;-65
2023/06/15 01:31:23;;;;;;;4.00;2.70;;;15.10;99.00;;;;;;5102881;28;20048;-63
2023/06/15 01:33:50;;;;;;;7.18;2.85;;;15.00;99.10;;;;;;5105887;28;20051;-64
2023/06/15 01:36:17;;;;;;;3.95;3.00;;;15.00;99.20;;;;;;5107850;28;20048;-66
2023/06/15 01:38:45;;;;;;;5.97;3.10;;;14.90;99.40;;;;;;5105658;28;20448;-63
2023/06/15 01:41:12;;;;;;;4.10;3.05;;;14.90;99.60;;;;;;5105844;28;20059;-66
2023/06/15 01:43:39;;;;;;;4.50;3.10;;;14.90;99.80;;;;;;5107383;28;20067;-68
2023/06/15 01:46:06;;;;;;;5.70;2.88;;;14.90;99.90;;;;;;5109220;27;20040;-66
2023/06/15 01:48:32;;;;;;;4.20;2.63;;;14.90;99.90;;;;;;5144848;27;20438;-64
2023/06/15 01:50:58;;;;;;;5.43;3.17;;;14.80;99.90;;;;;;5122943;27;20134;-68
2023/06/15 01:53:24;;;;;;;5.70;3.20;;;14.80;99.90;;;;;;5129312;27;20041;-64
2023/06/15 01:55:51;;;;;;;4.05;3.63;;;14.80;99.90;;;;;;5129997;27;20125;-65
2023/06/15 01:58:16;;;;;;;5.22;2.97;;;14.70;99.90;;;;;;5119952;27;20031;-66
2023/06/15 02:00:46;;;;;;;3.92;3.35;;;14.70;99.90;;;;;;5122024;27;20095;-67
2023/06/15 02:03:12;;;;;;;4.53;3.28;;;14.70;99.90;;;;;;5141448;27;20046;-65
2023/06/15 02:05:41;;;;;;;6.32;4.20;;;14.70;99.90;;;;;;5117334;27;20035;-65
2023/06/15 02:08:08;;;;;;;7.68;3.20;;;14.70;99.90;;;;;;5115862;27;20047;-62
2023/06/15 02:10:34;;;;;;;5.25;3.15;;;14.60;99.90;;;;;;5130215;27;20047;-65
2023/06/15 02:13:00;;;;;;;7.05;3.20;;;14.60;99.90;;;;;;5119355;27;20031;-64
2023/06/15 02:15:26;;;;;;;5.05;3.10;;;14.50;99.90;;;;;;5123883;27;20034;-63
2023/06/15 02:18:00;;;;;;;7.82;3.40;;;14.60;99.90;;;;;;5120084;27;20066;-64
2023/06/15 02:20:29;;;;;;;6.35;3.28;;;14.50;99.90;;;;;;5116284;27;20051;-64
2023/06/15 02:22:59;;;;;;;5.88;3.67;;;14.50;99.90;;;;;;5127189;27;20166;-64
2023/06/15 02:25:24;;;;;;;5.25;3.15;;;14.40;99.90;;;;;;5122750;27;20057;-65
2023/06/15 02:27:51;;;;;;;4.13;3.13;;;14.40;99.90;;;;;;5154448;27;20129;-64
2023/06/15 02:30:17;;;;;;;3.60;2.90;;;14.40;99.90;;;;;;5119785;27;20041;-64
2023/06/15 02:32:42;;;;;;;5.75;2.80;;;14.30;99.90;;;;;;5116416;27;20083;-65
2023/06/15 02:35:11;;;;;;;5.90;3.20;;;14.30;99.90;;;;;;5134262;27;20435;-63
2023/06/15 02:37:38;;;;;;;4.35;3.15;;;14.30;99.90;;;;;;5123965;27;20046;-65
2023/06/15 02:40:04;;;;;;;3.47;2.90;;;14.30;99.90;;;;;;5124590;27;20107;-64
2023/06/15 02:42:30;;;;;;;5.90;3.38;;;14.20;99.90;;;;;;5101725;27;20051;-64
2023/06/15 02:44:55;;;;;;;4.63;3.17;;;14.20;99.90;;;;;;5126366;27;20118;-64
2023/06/15 02:47:22;;;;;;;7.15;3.40;;;14.20;99.90;;;;;;5131448;27;20047;-64
2023/06/15 02:49:47;;;;;;;8.68;3.00;;;14.20;99.90;;;;;;5120983;27;20038;-65
2023/06/15 02:52:13;;;;;;;5.45;2.97;;;14.20;99.90;;;;;;5117891;27;20035;-65
2023/06/15 02:54:39;;;;;;;7.05;3.67;;;14.10;99.90;;;;;;5120971;27;20031;-64
2023/06/15 02:57:08;;;;;;;4.35;3.28;;;14.10;99.90;;;;;;5137478;27;20074;-64
2023/06/15 02:59:35;;;;;;;4.63;3.50;;;14.10;99.90;;;;;;5120982;27;20050;-67
2023/06/15 03:02:02;;;;;;;5.07;3.58;;;14.10;99.90;;;;;;5124488;27;20090;-64
2023/06/15 03:04:28;;;;;;;7.22;3.60;;;14.00;99.90;;;;;;5123942;27;20046;-64
2023/06/15 03:06:57;;;;;;;7.43;3.22;;;14.10;99.90;;;;;;5117568;27;20047;-64
2023/06/15 03:09:24;;;;;;;6.65;3.50;;;14.00;99.90;;;;;;5121352;27;20049;-64
2023/06/15 03:11:52;;;;;;;6.43;3.47;;;14.00;99.90;;;;;;5125054;27;20042;-63
2023/06/15 03:14:19;;;;;;;8.52;3.88;;;14.00;99.90;;;;;;5125746;27;20043;-65
2023/06/15 03:16:48;;;;;;;4.53;3.50;;;14.00;99.90;;;;;;5123950;27;20414;-63
2023/06/15 03:19:17;;;;;;;4.55;3.53;;;14.00;99.90;;;;;;5141641;27;20034;-65
2023/06/15 03:21:46;;;;;;;4.07;3.28;;;14.00;99.90;;;;;;5126943;27;20039;-63
2023/06/15 03:24:13;;;;;;;6.15;3.47;;;14.00;99.90;;;;;;5122926;27;20074;-63
2023/06/15 03:26:47;;;;;;;7.32;3.53;;;14.00;99.90;;;;;;5116388;27;20043;-64
2023/06/15 03:29:13;;;;;;;4.43;3.28;;;14.00;99.90;;;;;;5125257;27;20050;-63
2023/06/15 03:31:40;;;;;;;7.53;3.20;;;14.00;99.90;;;;;;5129994;27;20039;-66
2023/06/15 03:34:10;;;;;;;5.57;3.60;;;14.00;99.90;;;;;;5116201;27;20122;-66
2023/06/15 03:36:36;;;;;;;6.22;3.58;;;14.00;99.90;;;;;;5138216;27;20062;-66
2023/06/15 03:39:03;;;;;;;5.20;3.33;;;14.00;99.90;;;;;;5142554;27;20039;-66
2023/06/15 03:41:30;;;;;;;7.97;3.60;;;14.00;99.90;;;;;;5116001;27;20496;-65
2023/06/15 03:43:56;;;;;;;5.50;3.28;;;14.00;99.90;;;;;;5124952;27;20445;-65
2023/06/15 03:46:22;;;;;;;7.38;3.80;;;14.00;99.90;;;;;;5098654;27;20077;-66
2023/06/15 03:48:51;;;;;;;6.63;3.40;;;14.00;99.90;;;;;;5123093;27;20046;-64
2023/06/15 03:51:16;;;;;;;5.22;3.70;;;14.10;99.90;;;;;;5124535;27;20042;-64
2023/06/15 03:53:42;;;;;;;4.63;3.63;;;14.10;99.90;;;;;;5122257;27;20038;-64
2023/06/15 03:56:08;;;;;;;4.38;3.40;;;14.10;99.90;;;;;;5120911;27;20047;-63
2023/06/15 03:58:34;;;;;;;5.45;3.72;;;14.10;99.90;;;;;;5121328;27;20079;-64
2023/06/15 04:01:00;;;;;;;7.13;3.85;;;14.10;99.90;;;;;;5132742;27;20038;-66
2023/06/15 04:03:26;;;;;;;5.60;3.65;;;14.20;99.90;;;;;;5119407;27;20038;-62
2023/06/15 04:05:52;;;;;;;5.45;3.33;;;14.20;99.90;;;;;;5152176;27;20038;-65
2023/06/15 04:08:18;;;;;;;6.57;4.10;;;14.30;99.90;;;;;;5151460;27;20035;-62
2023/06/15 04:10:44;;;;;;;5.80;3.47;;;14.30;99.90;;;;;;5124683;27;20035;-64
2023/06/15 04:13:10;;;;;;;5.75;3.85;;;14.30;99.90;;;;;;5123976;27;20484;-64
2023/06/15 04:15:35;;;;;;;8.25;3.83;;;14.40;99.90;;;;;;5124029;27;20050;-68
2023/06/15 04:18:01;;;;;;;5.28;3.35;;;14.40;99.90;;;;;;5122490;27;20065;-62
2023/06/15 04:20:28;;;;;;;6.68;3.60;;;14.50;99.90;;;;;;5139430;27;20035;-64
2023/06/15 04:22:56;;;;;;;4.40;3.53;;;14.60;99.90;;;;;;5117821;27;20042;-66
2023/06/15 04:25:22;;;;;;;7.93;3.95;;;14.60;99.90;;;;;;5134986;27;20067;-63
2023/06/15 04:27:49;;;;;;;5.50;3.75;;;14.70;99.90;;;;;;5114209;27;20075;-65
2023/06/15 04:30:16;;;;;;;5.60;3.60;;;14.80;99.90;;;;;;5133976;27;20544;-64
2023/06/15 04:32:46;;;;;;;6.32;3.60;;;14.80;99.90;;;;;;5120322;27;20091;-64
2023/06/15 04:35:16;;;;;;;4.43;3.10;;;14.90;99.90;;;;;;5143882;27;20043;-64
2023/06/15 04:37:42;;;;;;;5.65;3.50;;;14.90;99.90;;;;;;5146969;27;20052;-64
2023/06/15 04:40:10;;;;;;;7.25;3.78;;;15.00;99.90;;;;;;5123947;27;20042;-62
2023/06/15 04:42:37;;;;;;;6.55;3.95;;;15.10;99.90;;;;;;5128767;27;20481;-64
2023/06/15 04:45:04;;;;;;;4.43;3.03;;;15.20;99.90;;;;;;5121510;27;20505;-63
2023/06/15 04:47:29;;;;;;;5.38;3.80;;;15.20;99.90;;;;;;5124016;27;20051;-65
2023/06/15 04:49:55;;;;;;;5.05;3.47;;;15.30;99.90;;;;;;5114265;27;20080;-65
2023/06/15 04:52:21;;;;;;;5.18;4.07;;;15.40;99.90;;;;;;5115291;27;20066;-64
2023/06/15 04:54:46;;;;;;;4.75;3.40;;;15.50;99.90;;;;;;5118592;27;20041;-62
2023/06/15 04:57:12;;;;;;;5.50;3.45;;;15.50;99.90;;;;;;5113129;27;20490;-64
2023/06/15 04:59:40;;;;;;;9.50;4.10;;;15.70;99.90;;;;;;5140076;27;20043;-63
2023/06/15 05:02:07;;;;;;;6.93;3.80;;;15.70;99.90;;;;;;5135129;27;20137;-66
2023/06/15 05:04:33;;;;;;;5.05;3.80;;;15.80;99.90;;;;;;5119107;27;20042;-64
2023/06/15 05:06:59;;;;;;;5.25;3.80;;;15.90;99.90;;;;;;5126161;27;20489;-66
2023/06/15 05:09:24;;;;;;;6.88;3.80;;;16.00;99.90;;;;;;5128894;27;20038;-65
2023/06/15 05:11:50;;;;;;;6.90;3.67;;;16.10;99.90;;;;;;5122514;27;20057;-66
2023/06/15 05:14:16;;;;;;;7.22;3.20;;;16.20;99.90;;;;;;5124544;27;20035;-65
2023/06/15 05:16:41;;;;;;;3.78;3.30;;;16.30;99.90;;;;;;5130768;27;20494;-64
2023/06/15 05:19:07;;;;;;;6.95;3.55;;;16.40;99.90;;;;;;5126460;27;20043;-66
2023/06/15 05:21:32;;;;;;;5.15;3.67;;;16.60;99.90;;;;;;5114442;27;20054;-66
2023/06/15 05:23:58;;;;;;;7.55;3.25;;;16.70;99.90;;;;;;5123186;27;20130;-64
2023/06/15 05:26:25;;;;;;;8.23;3.33;;;16.80;99.90;;;;;;5119414;27;20065;-66
2023/06/15 05:28:51;;;;;;;6.80;3.25;;;16.90;99.90;;;;;;5121025;27;20058;-65
2023/06/15 05:31:17;;;;;;;7.55;3.90;;;17.00;99.90;;;;;;5132310;27;20393;-63
2023/06/15 05:33:42;;;;;;;4.60;2.65;;;17.20;99.90;;;;;;5133411;27;20038;-65
2023/06/15 05:36:08;;;;;;;8.50;3.03;;;17.30;99.90;;;;;;5148566;27;20031;-67
2023/06/15 05:38:34;;;;;;;4.03;2.85;;;17.40;99.90;;;;;;5118382;27;20039;-63
2023/06/15 05:40:59;;;;;;;5.22;3.00;;;17.60;99.90;;;;;;5121487;27;20144;-66
2023/06/15 05:43:26;;;;;;;6.95;2.90;;;17.70;99.00;;;;;;5114539;27;20106;-63
2023/06/15 05:45:51;;;;;;;6.13;2.85;;;17.80;98.40;;;;;;5120440;27;20039;-65
2023/06/15 05:48:19;;;;;;;4.47;2.65;;;18.00;97.70;;;;;;5123057;27;20036;-65
2023/06/15 05:50:45;;;;;;;5.40;2.22;;;18.10;97.20;;;;;;5113832;27;20046;-65
2023/06/15 05:53:10;;;;;;;5.68;2.75;;;18.30;96.80;;;;;;5095111;27;20047;-65
2023/06/15 05:55:36;;;;;;;4.50;2.58;;;18.40;96.20;;;;;;5127293;27;20121;-62
2023/06/15 05:58:02;;;;;;;3.90;2.60;;;18.50;95.60;;;;;;5139919;27;20358;-65
2023/06/15 06:00:30;;;;;;;6.43;2.50;;;18.70;95.30;;;;;;5131602;27;20251;-66
2023/06/15 06:02:56;;;;;;;5.32;2.55;;;18.80;95.10;;;;;;5143259;27;20057;-63
2023/06/15 06:05:23;;;;;;;7.18;2.70;;;19.00;94.90;;;;;;5146305;27;20121;-64
2023/06/15 06:07:49;;;;;;;4.05;2.60;;;19.10;94.20;;;;;;5131896;27;20046;-64
2023/06/15 06:10:18;;;;;;;4.00;2.40;;;19.30;93.50;;;;;;5130379;27;20457;-67
2023/06/15 06:12:44;;;;;;;4.38;2.70;;;19.40;93.30;;;;;;5147969;27;20042;-64
2023/06/15 06:15:10;;;;;;;8.95;2.65;;;19.60;93.30;;;;;;5110684;27;20051;-66
2023/06/15 06:17:35;;;;;;;6.78;2.45;;;19.80;93.30;;;;;;5143925;27;20546;-65
2023/06/15 06:20:02;;;;;;;6.25;2.38;;;20.00;91.20;;;;;;5113367;27;20464;-64
2023/06/15 06:22:28;;;;;;;5.65;2.28;;;20.00;91.40;;;;;;5122400;27;20117;-64
2023/06/15 06:24:53;;;;;;;11.98;2.60;;;20.20;89.80;;;;;;5114026;27;20134;-64
2023/06/15 06:27:19;;;;;;;4.55;2.60;;;20.30;90.70;;;;;;5119516;28;20546;-65
2023/06/15 06:29:45;;;;;;;8.18;2.63;;;20.40;90.10;;;;;;5142612;27;20135;-65
2023/06/15 06:32:10;;;;;;;4.20;3.15;;;20.50;89.10;;;;;;5135966;27;20039;-63
2023/06/15 06:34:36;;;;;;;9.65;2.40;;;20.60;88.30;;;;;;5128082;27;20508;-65
2023/06/15 06:37:03;;;;;;;5.38;2.20;;;20.70;87.80;;;;;;5122594;27;20043;-64
2023/06/15 06:39:29;;;;;;;7.80;2.80;;;20.80;87.80;;;;;;5121418;27;20514;-66
2023/06/15 06:41:54;;;;;;;4.50;2.47;;;21.00;87.40;;;;;;5118077;27;20038;-64
2023/06/15 06:44:21;;;;;;;5.05;2.30;;;21.10;86.20;;;;;;5120330;27;20030;-65
2023/06/15 06:46:46;;;;;;;3.13;2.28;;;21.30;85.90;;;;;;5123820;27;20096;-66
2023/06/15 06:49:12;;;;;;;3.40;2.30;;;21.40;85.20;;;;;;5117749;28;20044;-64
2023/06/15 06:51:38;;;;;;;4.70;2.20;;;21.50;86.00;;;;;;5113989;27;20046;-66
2023/06/15 06:54:04;;;;;;;6.35;3.05;;;21.60;84.60;;;;;;5114727;27;20031;-63
2023/06/15 06:56:30;;;;;;;8.00;2.20;;;21.80;84.10;;;;;;5136362;27;20027;-63
2023/06/15 06:58:56;;;;;;;6.82;2.53;;;21.90;82.60;;;;;;5122016;27;20054;-63
2023/06/15 07:01:21;;;;;;;5.78;2.20;;;22.00;82.70;;;;;;5131924;27;20129;-64
2023/06/15 07:03:47;;;;;;;2.72;2.15;;;22.00;81.00;;;;;;5134070;27;20053;-63
2023/06/15 07:06:13;;;;;;;5.70;2.40;;;22.20;81.10;;;;;;5140955;27;20039;-64
2023/06/15 07:08:38;;;;;;;6.13;2.40;;;22.30;80.70;;;;;;5125864;27;20282;-65
2023/06/15 07:11:04;;;;;;;4.57;2.50;;;22.40;80.10;;;;;;5136876;27;20041;-65
2023/06/15 07:13:29;;;;;;;3.70;2.15;;;22.50;80.30;;;;;;5137109;27;20038;-65
2023/06/15 07:15:57;;;;;;;7.20;2.38;;;22.60;80.30;;;;;;5136497;27;20039;-64
2023/06/15 07:18:24;;;;;;;7.45;2.30;;;22.80;80.00;;;;;;5155318;27;20038;-65
2023/06/15 07:20:53;;;;;;;5.55;2.53;;;22.90;79.50;;;;;;5117706;27;20499;-67
2023/06/15 07:23:23;;;;;;;5.38;2.47;;;23.00;78.80;;;;;;5127793;27;20034;-67
2023/06/15 07:25:50;;;;;;;3.20;2.30;;;23.20;78.50;;;;;;5155129;27;20042;-63
2023/06/15 07:28:16;;;;;;;6.57;2.55;;;23.30;77.70;;;;;;5146391;27;21613;-63
2023/06/15 07:30:43;;;;;;;5.28;2.55;;;23.40;77.30;;;;;;5121982;27;20048;-63
2023/06/15 07:33:10;;;;;;;5.68;2.28;;;23.50;77.10;;;;;;5140275;27;20035;-64
2023/06/15 07:35:36;;;;;;;3.38;2.35;;;23.70;76.50;;;;;;5115692;27;20050;-66
2023/06/15 07:38:01;;;;;;;4.20;2.35;;;23.70;74.80;;;;;;5145677;27;20481;-66
2023/06/15 07:40:27;;;;;;;4.38;2.20;;;23.90;75.40;;;;;;5127162;27;20039;-63
2023/06/15 07:42:52;;;;;;;4.15;2.25;;;24.00;74.50;;;;;;5115499;27;20043;-65
2023/06/15 07:45:18;;;;;;;4.72;2.10;;;24.00;73.00;;;;;;5127149;27;20469;-66
2023/06/15 07:47:44;;;;;;;4.93;2.00;;;24.20;73.30;;;;;;5140210;27;20063;-66
2023/06/15 07:50:10;;;;;;;5.07;2.10;;;24.30;72.80;;;;;;5136253;27;20487;-65
2023/06/15 07:52:35;;;;;;;6.03;2.47;;;24.40;72.00;;;;;;5154738;27;20067;-66
2023/06/15 07:55:01;;;;;;;5.10;2.28;;;24.50;71.90;;;;;;5127239;27;20058;-66
2023/06/15 07:57:27;;;;;;;2.28;1.92;;;24.60;71.30;;;;;;5115412;27;20562;-64
2023/06/15 07:59:52;;;;;;;5.00;2.50;;;24.70;70.80;;;;;;5133782;27;20045;-65
2023/06/15 08:02:18;;;;;;;4.90;2.35;;;24.80;70.40;;;;;;5136811;27;20046;-66
2023/06/15 08:04:44;;;;;;;3.70;2.28;;;25.00;70.30;;;;;;5118257;27;20047;-63
2023/06/15 08:07:09;;;;;;;3.85;2.30;;;24.90;68.50;;;;;;5154006;27;20042;-66
2023/06/15 08:09:35;;;;;;;3.92;2.22;;;24.90;67.40;;;;;;5135593;27;20086;-64
2023/06/15 08:12:01;;;;;;;5.47;2.00;;;25.00;66.80;;;;;;5128178;27;20043;-63
2023/06/15 08:14:27;;;;;;;4.53;2.30;;;25.20;66.90;;;;;;5144995;27;20034;-66
2023/06/15 08:16:53;;;;;;;2.70;1.90;;;25.20;66.50;;;;;;5153282;27;20393;-63
2023/06/15 08:19:18;;;;;;;3.90;2.00;;;25.40;66.40;;;;;;5116222;27;20126;-63
2023/06/15 08:21:44;;;;;;;2.50;2.10;;;25.50;65.40;;;;;;5115079;27;20086;-63
2023/06/15 08:24:10;;;;;;;4.25;2.28;;;25.60;64.80;;;;;;5120080;27;20113;-67
2023/06/15 08:26:35;;;;;;;4.63;2.30;;;25.60;64.50;;;;;;5126917;27;20035;-65
2023/06/15 08:29:01;;;;;;;3.45;2.00;;;25.80;65.00;;;;;;5134367;27;20049;-64
2023/06/15 08:31:29;;;;;;;4.57;2.13;;;25.80;62.90;;;;;;5114834;27;20039;-64
2023/06/15 08:33:55;;;;;;;3.38;2.40;;;25.70;60.80;;;;;;5122104;27;20093;-65
2023/06/15 08:36:20;;;;;;;5.68;2.30;;;25.80;60.60;;;;;;5114093;27;20027;-65
2023/06/15 08:38:46;;;;;;;5.32;2.42;;;25.80;60.20;;;;;;5132701;27;20035;-66
2023/06/15 08:41:12;;;;;;;3.53;1.90;;;26.00;60.20;;;;;;5115580;27;20047;-67
2023/06/15 08:43:42;;;;;;;6.20;2.10;;;26.10;59.60;;;;;;5117804;27;20071;-65
2023/06/15 08:46:08;;;;;;;5.22;2.00;;;26.30;59.00;;;;;;5134628;27;20560;-65
2023/06/15 08:48:36;;;;;;;2.85;2.05;;;26.20;57.40;;;;;;5134318;27;20126;-65
2023/06/15 08:51:08;;;;;;;3.08;2.20;;;26.40;57.90;;;;;;5133616;27;20101;-63
2023/06/15 08:53:37;;;;;;;3.05;2.10;;;26.40;58.40;;;;;;5119704;27;20078;-64
2023/06/15 08:56:05;;;;;;;4.47;2.33;;;26.50;57.20;;;;;;5127850;27;20118;-66
2023/06/15 08:58:31;;;;;;;5.40;1.98;;;26.50;58.00;;;;;;5132246;27;20608;-65
2023/06/15 09:00:57;;;;;;;4.15;2.00;;;26.60;58.30;;;;;;5114073;27;20046;-65
2023/06/15 09:03:24;;;;;;;4.75;2.42;;;26.80;58.20;;;;;;5123300;27;20035;-63
2023/06/15 09:05:50;;;;;;;5.40;1.90;;;26.90;57.00;;;;;;5134879;27;20046;-65
2023/06/15 09:08:15;;;;;;;9.25;2.30;;;27.00;55.70;;;;;;5147908;27;20046;-63
2023/06/15 09:10:41;;;;;;;4.72;1.90;;;27.00;54.50;;;;;;5125453;27;20065;-65
2023/06/15 09:13:16;;;;;;;3.17;2.10;;;27.00;53.90;;;;;;5134225;27;20526;-65
2023/06/15 09:15:43;;;;;;;5.57;1.80;;;27.00;53.50;;;;;;5149815;27;20493;-64
2023/06/15 09:18:13;;;;;;;4.30;2.00;;;27.30;55.30;;;;;;5113088;27;20413;-64
2023/06/15 09:20:39;;;;;;;2.90;1.85;;;27.30;53.60;;;;;;5119017;27;20403;-65
2023/06/15 09:23:10;;;;;;;4.32;1.90;;;27.50;53.90;;;;;;5119438;27;20046;-66
2023/06/15 09:25:36;;;;;;;3.42;2.00;;;27.50;53.50;;;;;;5113276;27;20393;-67
2023/06/15 09:28:06;;;;;;;3.17;1.80;;;27.70;52.70;;;;;;5130400;27;20042;-65
2023/06/15 09:30:36;;;;;;;3.05;1.90;;;27.80;51.50;;;;;;5115883;27;20035;-66
2023/06/15 09:33:15;;;;;;;3.15;1.90;;;27.90;52.00;;;;;;5113867;27;20043;-64
2023/06/15 09:35:57;;;;;;;3.70;2.35;;;28.10;50.60;;;;;;5113543;27;20074;-63
2023/06/15 09:38:24;;;;;;;2.45;2.00;;;28.20;52.20;;;;;;5113140;27;20043;-62
2023/06/15 09:40:50;;;;;;;2.60;1.95;;;28.20;50.40;;;;;;5113315;27;20027;-65
2023/06/15 09:43:18;;;;;;;2.67;1.70;;;28.40;51.50;;;;;;5105804;27;20098;-64
2023/06/15 09:45:54;;;;;;;6.05;1.85;;;28.50;51.10;;;;;;5133601;27;20050;-63
2023/06/15 09:48:20;;;;;;;2.25;1.90;;;28.70;52.60;;;;;;5133749;27;20111;-63
2023/06/15 09:50:52;;;;;;;3.15;1.70;;;28.80;50.00;;;;;;5133490;27;20043;-65
2023/06/15 09:53:18;;;;;;;3.28;2.20;;;28.80;49.60;;;;;;5133434;27;20049;-66
2023/06/15 09:55:48;;;;;;;3.50;2.03;;;28.90;48.80;;;;;;5141423;27;20043;-64
2023/06/15 09:58:14;;;;;;;5.10;1.98;;;29.00;48.30;;;;;;5149371;27;20035;-65
2023/06/15 10:00:41;;;;;;;3.60;2.20;;;28.90;47.70;;;;;;5152022;27;20527;-65
2023/06/15 10:03:10;;;;;;;3.55;2.10;;;28.70;47.40;;;;;;5121780;27;20078;-64
2023/06/15 10:05:43;;;;;;;2.20;2.00;;;28.50;47.40;;;;;;5118268;27;20434;-66
2023/06/15 10:08:11;;;;;;;2.65;1.83;;;28.60;48.00;;;;;;5114704;27;20035;-64
2023/06/15 10:10:41;;;;;;;3.15;1.90;;;28.50;48.00;;;;;;5131330;27;20477;-67
2023/06/15 10:13:13;;;;;;;3.60;2.00;;;28.70;48.20;;;;;;5131502;27;20121;-64
2023/06/15 10:15:41;;;;;;;3.10;2.10;;;28.60;47.50;;;;;;5132895;27;20046;-66
2023/06/15 10:18:10;;;;;;;5.35;2.38;;;28.40;45.40;;;;;;5132906;27;20039;-68
2023/06/15 10:20:36;;;;;;;5.10;2.20;;;28.80;46.80;;;;;;5130180;27;20039;-66
2023/06/15 10:23:04;;;;;;;2.72;1.98;;;28.90;46.60;;;;;;5130087;27;20417;-64
2023/06/15 10:25:31;;;;;;;5.05;1.95;;;29.10;47.10;;;;;;5141328;27;20112;-67
2023/06/15 10:28:09;;;;;;;4.97;2.28;;;29.10;48.00;;;;;;5112473;27;20050;-66
2023/06/15 10:30:41;;;;;;;2.85;2.20;;;29.10;48.50;;;;;;5116104;27;20153;-66
2023/06/15 10:33:20;;;;;;;6.13;2.60;;;29.20;49.60;;;;;;5136688;27;20091;-66
2023/06/15 10:36:11;;;;;;;2.80;2.10;;;29.40;49.50;;;;;;5115830;27;20167;-65
2023/06/15 10:39:08;;;;;;;4.03;2.33;;;29.60;49.30;;;;;;5135022;27;20100;-64
2023/06/15 10:41:36;;;;;;;2.20;2.00;;;29.50;49.00;;;;;;5088372;27;20039;-64
2023/06/15 10:44:04;;;;;;;3.45;2.20;;;29.70;50.20;;;;;;5137871;27;20050;-64
2023/06/15 10:46:31;;;;;;;3.75;2.40;;;29.70;49.60;;;;;;5155406;27;20062;-67
2023/06/15 10:49:08;;;;;;;6.32;2.33;;;29.80;49.30;;;;;;5155338;27;20081;-64
2023/06/15 10:51:37;;;;;;;8.57;2.50;;;29.90;49.40;;;;;;5136928;27;20091;-67
2023/06/15 10:54:04;;;;;;;4.03;2.35;;;29.60;49.30;;;;;;5155302;27;20112;-64
2023/06/15 10:56:30;;;;;;;2.83;2.35;;;29.60;48.40;;;;;;5137044;27;20043;-65
2023/06/15 10:59:03;;;;;;;3.92;2.10;;;29.70;49.20;;;;;;5118106;27;20110;-64
2023/06/15 11:01:33;;;;;;;3.95;2.10;;;29.60;47.50;;;;;;5116881;27;20038;-66
2023/06/15 11:04:38;;;;;;;2.53;2.15;;;29.50;47.90;;;;;;5155418;27;20034;-65
2023/06/15 11:07:03;;;;;;;4.68;2.10;;;29.40;48.40;;;;;;5054182;28;20098;-65
2023/06/15 11:09:35;;;;;;;3.13;2.00;;;29.40;49.30;;;;;;5070806;28;20434;-64
2023/06/15 11:12:01;;;;;;;3.63;2.00;;;29.40;47.90;;;;;;5054223;28;20530;-66
2023/06/15 11:14:27;;;;;;;4.43;2.20;;;29.60;49.00;;;;;;5054223;28;20131;-65
2023/06/15 11:17:05;;;;;;;4.43;2.10;;;29.60;48.00;;;;;;5054043;28;20158;-66
2023/06/15 11:19:39;;;;;;;2.90;2.20;;;29.70;47.00;;;;;;5070725;28;20499;-67
2023/06/15 11:22:06;;;;;;;5.15;2.03;;;29.70;47.10;;;;;;5053903;28;20043;-65
2023/06/15 11:24:36;;;;;;;3.55;2.10;;;29.50;46.80;;;;;;5053846;28;20174;-65
2023/06/15 11:27:03;;;;;;;4.70;2.25;;;29.50;46.60;;;;;;5070497;28;20087;-68
2023/06/15 11:29:33;;;;;;;5.90;2.00;;;29.60;46.70;;;;;;5053852;28;20055;-66
2023/06/15 11:32:03;;;;;;;3.08;1.95;;;29.40;46.80;;;;;;5053914;28;20147;-65
2023/06/15 11:34:31;;;;;;;3.88;2.00;;;29.40;47.70;;;;;;5053825;28;20043;-69
2023/06/15 11:36:58;;;;;;;3.35;2.10;;;29.00;47.90;;;;;;5049079;27;20054;-65
2023/06/15 11:39:26;;;;;;;6.47;2.30;;;28.90;47.70;;;;;;5135878;27;20038;-64
2023/06/15 11:41:53;;;;;;;4.45;2.25;;;28.70;47.60;;;;;;5136203;27;20408;-65
2023/06/15 11:44:23;;;;;;;3.55;2.10;;;28.70;47.20;;;;;;5118181;27;20131;-66
2023/06/15 11:46:59;;;;;;;3.10;2.20;;;28.40;47.20;;;;;;5128431;27;20063;-66
2023/06/15 11:49:32;;;;;;;3.08;1.90;;;28.30;48.00;;;;;;5133820;27;20472;-69
2023/06/15 11:51:58;;;;;;;2.25;1.98;;;28.40;47.90;;;;;;5115512;27;20047;-64
2023/06/15 11:54:26;;;;;;;3.42;2.20;;;28.40;47.00;;;;;;5117590;27;20156;-64
2023/06/15 11:56:58;;;;;;;4.03;2.20;;;28.60;46.60;;;;;;5115439;27;20054;-66
2023/06/15 11:59:26;;;;;;;3.95;1.80;;;28.60;46.20;;;;;;5100708;27;20039;-67
2023/06/15 12:01:53;;;;;;;5.05;2.30;;;28.60;47.00;;;;;;5124057;27;20038;-64
2023/06/15 12:04:19;;;;;;;2.65;2.13;;;28.60;46.50;;;;;;5136809;27;20047;-67
2023/06/15 12:06:46;;;;;;;5.22;2.00;;;28.60;46.30;;;;;;5120652;27;20050;-64
2023/06/15 12:09:12;;;;;;;3.72;1.98;;;28.60;46.90;;;;;;5126348;27;20495;-66
2023/06/15 12:11:38;;;;;;;2.85;2.05;;;28.50;47.60;;;;;;5114689;27;20043;-66
2023/06/15 12:14:08;;;;;;;2.85;2.25;;;28.40;46.90;;;;;;5097703;27;20038;-65
2023/06/15 12:16:35;;;;;;;4.00;2.10;;;28.40;46.40;;;;;;5133022;27;20047;-67
2023/06/15 12:19:01;;;;;;;2.65;1.95;;;28.40;46.30;;;;;;5097459;27;20090;-69
2023/06/15 12:21:32;;;;;;;6.95;2.20;;;28.20;45.40;;;;;;5134429;27;20078;-64
2023/06/15 12:24:00;;;;;;;5.72;1.90;;;28.00;44.70;;;;;;5127583;27;20039;-63
2023/06/15 12:26:31;;;;;;;4.35;2.22;;;27.80;44.40;;;;;;5125134;27;20038;-64
2023/06/15 12:28:57;;;;;;;3.05;2.00;;;27.60;44.30;;;;;;5125417;27;20042;-64
2023/06/15 12:31:32;;;;;;;5.63;2.20;;;27.60;45.10;;;;;;5134828;27;20031;-63
2023/06/15 12:33:58;;;;;;;3.38;1.92;;;27.60;45.00;;;;;;5116835;27;20544;-65
2023/06/15 12:36:26;;;;;;;5.40;1.88;;;27.70;45.30;;;;;;5132664;27;20156;-66
2023/06/15 12:38:52;;;;;;;2.90;2.10;;;27.60;44.90;;;;;;5114496;27;20058;-64
2023/06/15 12:41:18;;;;;;;3.85;2.10;;;27.60;44.90;;;;;;5133382;27;20031;-65
2023/06/15 12:43:47;;;;;;;3.35;2.13;;;27.50;45.40;;;;;;5153389;27;20034;-66
2023/06/15 12:46:13;;;;;;;3.67;1.98;;;27.60;45.40;;;;;;5134670;27;20548;-64
2023/06/15 12:48:38;;;;;;;5.55;2.00;;;27.60;45.20;;;;;;5153559;27;20041;-67